sensor_id;sensor_type;location;lat;lon;timestamp;P1;durP1;ratioP1;P2;durP2;ratioP2
10309;SDS011;5200;43.236;27.986;2022-08-21T00:01:46;9.60;;;8.60;;
10309;SDS011;5200;43.236;27.986;2022-08-21T00:04:14;10.45;;;8.60;;
10309;SDS011;5200;43.236;27.986;2022-08-21T00:06:41;10.80;;;7.88;;
10309;SDS011;5200;43.236;27.986;2022-08-21T00:09:08;10.95;;;7.97;;
10309;SDS011;5200;43.236;27.986;2022-08-21T00:11:36;8.98;;;7.15;;
10309;SDS011;5200;43.236;27.986;2022-08-21T00:14:05;8.82;;;7.40;;
10309;SDS011;5200;43.236;27.986;2022-08-21T00:16:34;7.40;;;6.60;;
10309;SDS011;5200;43.236;27.986;2022-08-21T00:19:01;7.88;;;7.10;;
10309;SDS011;5200;43.236;27.986;2022-08-21T00:21:30;7.95;;;6.47;;
10309;SDS011;5200;43.236;27.986;2022-08-21T00:23:57;7.82;;;7.13;;
10309;SDS011;5200;43.236;27.986;2022-08-21T00:26:24;10.27;;;7.35;;
10309;SDS011;5200;43.236;27.986;2022-08-21T00:28:51;8.10;;;7.40;;
10309;SDS011;5200;43.236;27.986;2022-08-21T00:31:18;7.88;;;7.00;;
10309;SDS011;5200;43.236;27.986;2022-08-21T00:33:45;8.35;;;7.32;;
10309;SDS011;5200;43.236;27.986;2022-08-21T00:36:12;8.00;;;7.25;;
10309;SDS011;5200;43.236;27.986;2022-08-21T00:38:41;8.23;;;7.40;;
10309;SDS011;5200;43.236;27.986;2022-08-21T00:41:09;8.05;;;7.38;;
10309;SDS011;5200;43.236;27.986;2022-08-21T00:43:37;7.35;;;6.60;;
10309;SDS011;5200;43.236;27.986;2022-08-21T00:46:05;7.22;;;6.50;;
10309;SDS011;5200;43.236;27.986;2022-08-21T00:48:33;7.55;;;6.85;;
10309;SDS011;5200;43.236;27.986;2022-08-21T00:51:04;8.23;;;6.45;;
10309;SDS011;5200;43.236;27.986;2022-08-21T00:53:33;8.52;;;6.50;;
10309;SDS011;5200;43.236;27.986;2022-08-21T00:56:06;7.22;;;5.97;;
10309;SDS011;5200;43.236;27.986;2022-08-21T00:58:35;7.22;;;6.53;;
10309;SDS011;5200;43.236;27.986;2022-08-21T01:01:05;7.35;;;6.65;;
10309;SDS011;5200;43.236;27.986;2022-08-21T01:03:32;10.18;;;6.60;;
10309;SDS011;5200;43.236;27.986;2022-08-21T01:06:01;7.20;;;6.50;;
10309;SDS011;5200;43.236;27.986;2022-08-21T01:08:31;7.85;;;7.05;;
10309;SDS011;5200;43.236;27.986;2022-08-21T01:10:59;7.70;;;6.25;;
10309;SDS011;5200;43.236;27.986;2022-08-21T01:13:29;7.65;;;6.82;;
10309;SDS011;5200;43.236;27.986;2022-08-21T01:15:59;9.40;;;6.20;;
10309;SDS011;5200;43.236;27.986;2022-08-21T01:18:29;7.95;;;6.65;;
10309;SDS011;5200;43.236;27.986;2022-08-21T01:21:00;8.48;;;6.55;;
10309;SDS011;5200;43.236;27.986;2022-08-21T01:23:34;7.72;;;7.05;;
10309;SDS011;5200;43.236;27.986;2022-08-21T01:26:04;7.60;;;6.82;;
10309;SDS011;5200;43.236;27.986;2022-08-21T01:28:33;7.30;;;6.35;;
10309;SDS011;5200;43.236;27.986;2022-08-21T01:31:03;7.22;;;6.53;;
10309;SDS011;5200;43.236;27.986;2022-08-21T01:33:32;7.65;;;6.85;;
10309;SDS011;5200;43.236;27.986;2022-08-21T01:36:01;10.18;;;6.95;;
10309;SDS011;5200;43.236;27.986;2022-08-21T01:38:29;7.90;;;7.10;;
10309;SDS011;5200;43.236;27.986;2022-08-21T01:40:56;6.95;;;6.38;;
10309;SDS011;5200;43.236;27.986;2022-08-21T01:43:22;9.23;;;8.20;;
10309;SDS011;5200;43.236;27.986;2022-08-21T01:45:49;9.05;;;7.45;;
10309;SDS011;5200;43.236;27.986;2022-08-21T01:48:16;11.82;;;7.85;;
10309;SDS011;5200;43.236;27.986;2022-08-21T01:50:43;8.05;;;7.25;;
10309;SDS011;5200;43.236;27.986;2022-08-21T01:53:11;9.95;;;7.53;;
10309;SDS011;5200;43.236;27.986;2022-08-21T01:55:40;8.27;;;7.53;;
10309;SDS011;5200;43.236;27.986;2022-08-21T01:58:07;8.38;;;7.65;;
10309;SDS011;5200;43.236;27.986;2022-08-21T02:00:34;9.38;;;8.35;;
10309;SDS011;5200;43.236;27.986;2022-08-21T02:03:01;8.50;;;7.70;;
10309;SDS011;5200;43.236;27.986;2022-08-21T02:05:28;9.50;;;8.68;;
10309;SDS011;5200;43.236;27.986;2022-08-21T02:07:55;10.02;;;9.02;;
10309;SDS011;5200;43.236;27.986;2022-08-21T02:10:25;9.02;;;7.05;;
10309;SDS011;5200;43.236;27.986;2022-08-21T02:12:56;7.47;;;6.80;;
10309;SDS011;5200;43.236;27.986;2022-08-21T02:15:23;10.25;;;8.25;;
10309;SDS011;5200;43.236;27.986;2022-08-21T02:17:51;9.73;;;8.75;;
10309;SDS011;5200;43.236;27.986;2022-08-21T02:20:21;9.60;;;8.57;;
10309;SDS011;5200;43.236;27.986;2022-08-21T02:22:49;9.90;;;8.98;;
10309;SDS011;5200;43.236;27.986;2022-08-21T02:25:16;11.07;;;9.27;;
10309;SDS011;5200;43.236;27.986;2022-08-21T02:27:46;9.32;;;8.43;;
10309;SDS011;5200;43.236;27.986;2022-08-21T02:30:14;10.70;;;8.90;;
10309;SDS011;5200;43.236;27.986;2022-08-21T02:32:42;8.82;;;7.72;;
10309;SDS011;5200;43.236;27.986;2022-08-21T02:35:10;8.93;;;8.13;;
10309;SDS011;5200;43.236;27.986;2022-08-21T02:37:44;8.32;;;7.45;;
10309;SDS011;5200;43.236;27.986;2022-08-21T02:40:13;8.35;;;7.55;;
10309;SDS011;5200;43.236;27.986;2022-08-21T02:42:41;8.38;;;7.57;;
10309;SDS011;5200;43.236;27.986;2022-08-21T02:45:10;7.45;;;6.85;;
10309;SDS011;5200;43.236;27.986;2022-08-21T02:47:37;9.00;;;6.72;;
10309;SDS011;5200;43.236;27.986;2022-08-21T02:50:06;7.47;;;6.80;;
10309;SDS011;5200;43.236;27.986;2022-08-21T02:52:33;7.15;;;6.55;;
10309;SDS011;5200;43.236;27.986;2022-08-21T02:55:01;7.05;;;6.45;;
10309;SDS011;5200;43.236;27.986;2022-08-21T02:57:28;7.15;;;6.55;;
10309;SDS011;5200;43.236;27.986;2022-08-21T02:59:57;8.15;;;7.45;;
10309;SDS011;5200;43.236;27.986;2022-08-21T03:02:25;7.72;;;7.03;;
10309;SDS011;5200;43.236;27.986;2022-08-21T03:04:52;7.15;;;6.55;;
10309;SDS011;5200;43.236;27.986;2022-08-21T03:07:19;7.57;;;6.97;;
10309;SDS011;5200;43.236;27.986;2022-08-21T03:09:46;8.18;;;7.38;;
10309;SDS011;5200;43.236;27.986;2022-08-21T03:12:13;8.68;;;7.88;;
10309;SDS011;5200;43.236;27.986;2022-08-21T03:14:40;9.80;;;8.18;;
10309;SDS011;5200;43.236;27.986;2022-08-21T03:17:07;8.77;;;7.93;;
10309;SDS011;5200;43.236;27.986;2022-08-21T03:19:35;9.70;;;8.82;;
10309;SDS011;5200;43.236;27.986;2022-08-21T03:22:02;13.20;;;8.93;;
10309;SDS011;5200;43.236;27.986;2022-08-21T03:24:30;9.82;;;8.85;;
10309;SDS011;5200;43.236;27.986;2022-08-21T03:26:57;10.07;;;9.02;;
10309;SDS011;5200;43.236;27.986;2022-08-21T03:29:25;9.68;;;8.80;;
10309;SDS011;5200;43.236;27.986;2022-08-21T03:31:52;10.32;;;9.32;;
10309;SDS011;5200;43.236;27.986;2022-08-21T03:34:19;11.02;;;9.60;;
10309;SDS011;5200;43.236;27.986;2022-08-21T03:36:48;10.07;;;9.07;;
10309;SDS011;5200;43.236;27.986;2022-08-21T03:39:15;10.27;;;8.98;;
10309;SDS011;5200;43.236;27.986;2022-08-21T03:41:42;9.40;;;8.60;;
10309;SDS011;5200;43.236;27.986;2022-08-21T03:44:09;10.13;;;9.20;;
10309;SDS011;5200;43.236;27.986;2022-08-21T03:46:36;9.63;;;8.73;;
10309;SDS011;5200;43.236;27.986;2022-08-21T03:49:05;9.52;;;8.50;;
10309;SDS011;5200;43.236;27.986;2022-08-21T03:51:32;9.05;;;8.25;;
10309;SDS011;5200;43.236;27.986;2022-08-21T03:54:02;8.70;;;7.68;;
10309;SDS011;5200;43.236;27.986;2022-08-21T03:56:29;8.30;;;7.60;;
10309;SDS011;5200;43.236;27.986;2022-08-21T03:58:56;8.23;;;7.47;;
10309;SDS011;5200;43.236;27.986;2022-08-21T04:01:23;8.20;;;7.40;;
10309;SDS011;5200;43.236;27.986;2022-08-21T04:03:50;10.23;;;8.15;;
10309;SDS011;5200;43.236;27.986;2022-08-21T04:06:17;7.75;;;6.97;;
10309;SDS011;5200;43.236;27.986;2022-08-21T04:08:44;7.53;;;6.82;;
10309;SDS011;5200;43.236;27.986;2022-08-21T04:11:12;7.03;;;6.32;;
10309;SDS011;5200;43.236;27.986;2022-08-21T04:13:40;6.05;;;5.55;;
10309;SDS011;5200;43.236;27.986;2022-08-21T04:16:07;6.30;;;5.80;;
10309;SDS011;5200;43.236;27.986;2022-08-21T04:18:34;5.55;;;5.15;;
10309;SDS011;5200;43.236;27.986;2022-08-21T04:21:01;5.93;;;5.43;;
10309;SDS011;5200;43.236;27.986;2022-08-21T04:23:28;6.35;;;5.85;;
10309;SDS011;5200;43.236;27.986;2022-08-21T04:25:56;6.43;;;5.93;;
10309;SDS011;5200;43.236;27.986;2022-08-21T04:28:25;6.10;;;5.55;;
10309;SDS011;5200;43.236;27.986;2022-08-21T04:30:53;6.57;;;6.05;;
10309;SDS011;5200;43.236;27.986;2022-08-21T04:33:22;6.65;;;6.05;;
10309;SDS011;5200;43.236;27.986;2022-08-21T04:35:49;8.38;;;6.20;;
10309;SDS011;5200;43.236;27.986;2022-08-21T04:38:16;8.77;;;6.15;;
10309;SDS011;5200;43.236;27.986;2022-08-21T04:40:44;7.25;;;6.47;;
10309;SDS011;5200;43.236;27.986;2022-08-21T04:43:11;7.22;;;6.53;;
10309;SDS011;5200;43.236;27.986;2022-08-21T04:45:40;8.88;;;6.95;;
10309;SDS011;5200;43.236;27.986;2022-08-21T04:48:09;9.02;;;6.13;;
10309;SDS011;5200;43.236;27.986;2022-08-21T04:50:39;6.60;;;6.00;;
10309;SDS011;5200;43.236;27.986;2022-08-21T04:53:10;7.43;;;6.78;;
10309;SDS011;5200;43.236;27.986;2022-08-21T04:55:40;7.38;;;6.78;;
10309;SDS011;5200;43.236;27.986;2022-08-21T04:58:09;8.85;;;6.13;;
10309;SDS011;5200;43.236;27.986;2022-08-21T05:00:40;5.90;;;5.40;;
10309;SDS011;5200;43.236;27.986;2022-08-21T05:03:08;7.80;;;5.80;;
10309;SDS011;5200;43.236;27.986;2022-08-21T05:05:37;5.85;;;5.35;;
10309;SDS011;5200;43.236;27.986;2022-08-21T05:08:05;6.20;;;5.57;;
10309;SDS011;5200;43.236;27.986;2022-08-21T05:10:35;6.65;;;4.70;;
10309;SDS011;5200;43.236;27.986;2022-08-21T05:13:02;5.63;;;5.13;;
10309;SDS011;5200;43.236;27.986;2022-08-21T05:15:30;5.15;;;4.75;;
10309;SDS011;5200;43.236;27.986;2022-08-21T05:17:58;5.18;;;4.68;;
10309;SDS011;5200;43.236;27.986;2022-08-21T05:20:25;5.32;;;4.85;;
10309;SDS011;5200;43.236;27.986;2022-08-21T05:22:52;5.10;;;4.70;;
10309;SDS011;5200;43.236;27.986;2022-08-21T05:25:20;6.60;;;4.70;;
10309;SDS011;5200;43.236;27.986;2022-08-21T05:27:48;8.98;;;4.25;;
10309;SDS011;5200;43.236;27.986;2022-08-21T05:30:15;6.68;;;4.95;;
10309;SDS011;5200;43.236;27.986;2022-08-21T05:32:42;6.45;;;4.72;;
10309;SDS011;5200;43.236;27.986;2022-08-21T05:35:10;5.20;;;4.70;;
10309;SDS011;5200;43.236;27.986;2022-08-21T05:37:37;7.57;;;4.68;;
10309;SDS011;5200;43.236;27.986;2022-08-21T05:40:04;5.70;;;4.93;;
10309;SDS011;5200;43.236;27.986;2022-08-21T05:42:33;6.45;;;4.82;;
10309;SDS011;5200;43.236;27.986;2022-08-21T05:45:00;6.07;;;4.43;;
10309;SDS011;5200;43.236;27.986;2022-08-21T05:47:26;5.18;;;4.78;;
10309;SDS011;5200;43.236;27.986;2022-08-21T05:49:53;4.80;;;4.32;;
10309;SDS011;5200;43.236;27.986;2022-08-21T05:52:22;5.30;;;4.40;;
10309;SDS011;5200;43.236;27.986;2022-08-21T05:54:49;5.60;;;5.00;;
10309;SDS011;5200;43.236;27.986;2022-08-21T05:57:18;6.85;;;4.55;;
10309;SDS011;5200;43.236;27.986;2022-08-21T05:59:46;5.60;;;4.55;;
10309;SDS011;5200;43.236;27.986;2022-08-21T06:02:13;6.88;;;4.88;;
10309;SDS011;5200;43.236;27.986;2022-08-21T06:04:40;6.10;;;5.50;;
10309;SDS011;5200;43.236;27.986;2022-08-21T06:07:08;5.28;;;4.78;;
10309;SDS011;5200;43.236;27.986;2022-08-21T06:09:36;5.13;;;4.63;;
10309;SDS011;5200;43.236;27.986;2022-08-21T06:12:04;6.72;;;5.00;;
10309;SDS011;5200;43.236;27.986;2022-08-21T06:14:33;4.55;;;4.15;;
10309;SDS011;5200;43.236;27.986;2022-08-21T06:17:03;8.70;;;4.68;;
10309;SDS011;5200;43.236;27.986;2022-08-21T06:19:30;6.13;;;4.78;;
10309;SDS011;5200;43.236;27.986;2022-08-21T06:21:57;4.78;;;4.38;;
10309;SDS011;5200;43.236;27.986;2022-08-21T06:24:25;6.38;;;4.50;;
10309;SDS011;5200;43.236;27.986;2022-08-21T06:26:53;8.35;;;4.05;;
10309;SDS011;5200;43.236;27.986;2022-08-21T06:29:21;4.60;;;4.20;;
10309;SDS011;5200;43.236;27.986;2022-08-21T06:31:48;5.05;;;4.63;;
10309;SDS011;5200;43.236;27.986;2022-08-21T06:34:17;4.50;;;4.20;;
10309;SDS011;5200;43.236;27.986;2022-08-21T06:36:44;4.78;;;4.25;;
10309;SDS011;5200;43.236;27.986;2022-08-21T06:39:11;5.13;;;4.70;;
10309;SDS011;5200;43.236;27.986;2022-08-21T06:41:39;5.28;;;4.78;;
10309;SDS011;5200;43.236;27.986;2022-08-21T06:44:07;6.43;;;4.55;;
10309;SDS011;5200;43.236;27.986;2022-08-21T06:46:34;4.78;;;4.32;;
10309;SDS011;5200;43.236;27.986;2022-08-21T06:49:02;5.32;;;4.82;;
10309;SDS011;5200;43.236;27.986;2022-08-21T06:51:28;4.50;;;4.10;;
10309;SDS011;5200;43.236;27.986;2022-08-21T06:53:55;4.60;;;4.15;;
10309;SDS011;5200;43.236;27.986;2022-08-21T06:56:22;5.88;;;4.53;;
10309;SDS011;5200;43.236;27.986;2022-08-21T06:58:49;4.88;;;4.38;;
10309;SDS011;5200;43.236;27.986;2022-08-21T07:01:18;7.80;;;4.47;;
10309;SDS011;5200;43.236;27.986;2022-08-21T07:03:46;6.55;;;4.60;;
10309;SDS011;5200;43.236;27.986;2022-08-21T07:06:13;4.32;;;3.92;;
10309;SDS011;5200;43.236;27.986;2022-08-21T07:08:40;4.97;;;4.18;;
10309;SDS011;5200;43.236;27.986;2022-08-21T07:11:09;6.60;;;4.40;;
10309;SDS011;5200;43.236;27.986;2022-08-21T07:13:38;9.90;;;4.30;;
10309;SDS011;5200;43.236;27.986;2022-08-21T07:16:05;4.47;;;3.95;;
10309;SDS011;5200;43.236;27.986;2022-08-21T07:18:34;6.78;;;4.00;;
10309;SDS011;5200;43.236;27.986;2022-08-21T07:21:01;5.50;;;3.92;;
10309;SDS011;5200;43.236;27.986;2022-08-21T07:23:30;4.57;;;4.18;;
10309;SDS011;5200;43.236;27.986;2022-08-21T07:25:58;3.67;;;3.38;;
10309;SDS011;5200;43.236;27.986;2022-08-21T07:28:25;4.35;;;4.03;;
10309;SDS011;5200;43.236;27.986;2022-08-21T07:30:53;7.18;;;4.47;;
10309;SDS011;5200;43.236;27.986;2022-08-21T07:33:22;4.60;;;4.30;;
10309;SDS011;5200;43.236;27.986;2022-08-21T07:35:51;9.30;;;4.30;;
10309;SDS011;5200;43.236;27.986;2022-08-21T07:38:18;7.53;;;4.50;;
10309;SDS011;5200;43.236;27.986;2022-08-21T07:40:45;4.40;;;4.00;;
10309;SDS011;5200;43.236;27.986;2022-08-21T07:43:13;5.38;;;4.40;;
10309;SDS011;5200;43.236;27.986;2022-08-21T07:45:42;8.73;;;4.38;;
10309;SDS011;5200;43.236;27.986;2022-08-21T07:48:09;5.32;;;3.90;;
10309;SDS011;5200;43.236;27.986;2022-08-21T07:50:36;6.25;;;4.35;;
10309;SDS011;5200;43.236;27.986;2022-08-21T07:53:04;4.93;;;4.45;;
10309;SDS011;5200;43.236;27.986;2022-08-21T07:55:32;7.35;;;4.28;;
10309;SDS011;5200;43.236;27.986;2022-08-21T07:57:59;6.30;;;4.50;;
10309;SDS011;5200;43.236;27.986;2022-08-21T08:00:27;5.00;;;4.50;;
10309;SDS011;5200;43.236;27.986;2022-08-21T08:02:55;5.93;;;4.50;;
10309;SDS011;5200;43.236;27.986;2022-08-21T08:05:23;5.40;;;4.65;;
10309;SDS011;5200;43.236;27.986;2022-08-21T08:07:52;5.55;;;4.60;;
10309;SDS011;5200;43.236;27.986;2022-08-21T08:10:21;5.43;;;4.35;;
10309;SDS011;5200;43.236;27.986;2022-08-21T08:12:49;9.82;;;4.75;;
10309;SDS011;5200;43.236;27.986;2022-08-21T08:15:18;7.38;;;4.90;;
10309;SDS011;5200;43.236;27.986;2022-08-21T08:17:46;14.77;;;5.38;;
10309;SDS011;5200;43.236;27.986;2022-08-21T08:20:13;7.68;;;4.63;;
10309;SDS011;5200;43.236;27.986;2022-08-21T08:22:41;11.15;;;5.28;;
10309;SDS011;5200;43.236;27.986;2022-08-21T08:25:08;6.90;;;5.00;;
10309;SDS011;5200;43.236;27.986;2022-08-21T08:27:38;7.60;;;4.97;;
10309;SDS011;5200;43.236;27.986;2022-08-21T08:30:06;6.65;;;5.03;;
10309;SDS011;5200;43.236;27.986;2022-08-21T08:32:35;7.82;;;5.47;;
10309;SDS011;5200;43.236;27.986;2022-08-21T08:35:02;9.88;;;5.03;;
10309;SDS011;5200;43.236;27.986;2022-08-21T08:37:30;5.68;;;5.18;;
10309;SDS011;5200;43.236;27.986;2022-08-21T08:39:58;8.30;;;4.78;;
10309;SDS011;5200;43.236;27.986;2022-08-21T08:42:27;5.60;;;5.03;;
10309;SDS011;5200;43.236;27.986;2022-08-21T08:44:57;10.25;;;5.13;;
10309;SDS011;5200;43.236;27.986;2022-08-21T08:47:28;9.18;;;5.10;;
10309;SDS011;5200;43.236;27.986;2022-08-21T08:49:58;7.57;;;4.88;;
10309;SDS011;5200;43.236;27.986;2022-08-21T08:52:31;6.80;;;5.30;;
10309;SDS011;5200;43.236;27.986;2022-08-21T08:55:00;9.18;;;5.75;;
10309;SDS011;5200;43.236;27.986;2022-08-21T08:57:30;5.78;;;4.93;;
10309;SDS011;5200;43.236;27.986;2022-08-21T09:00:00;9.93;;;5.38;;
10309;SDS011;5200;43.236;27.986;2022-08-21T09:02:31;6.18;;;5.20;;
10309;SDS011;5200;43.236;27.986;2022-08-21T09:05:00;6.70;;;5.20;;
10309;SDS011;5200;43.236;27.986;2022-08-21T09:07:30;5.10;;;4.68;;
10309;SDS011;5200;43.236;27.986;2022-08-21T09:10:06;11.75;;;5.40;;
10309;SDS011;5200;43.236;27.986;2022-08-21T09:12:39;8.98;;;5.18;;
10309;SDS011;5200;43.236;27.986;2022-08-21T09:15:19;8.10;;;5.50;;
10309;SDS011;5200;43.236;27.986;2022-08-21T09:17:59;8.57;;;5.22;;
10309;SDS011;5200;43.236;27.986;2022-08-21T09:20:46;6.53;;;4.72;;
10309;SDS011;5200;43.236;27.986;2022-08-21T09:23:33;8.43;;;5.20;;
10309;SDS011;5200;43.236;27.986;2022-08-21T09:26:12;5.45;;;4.93;;
10309;SDS011;5200;43.236;27.986;2022-08-21T09:28:40;10.98;;;5.53;;
10309;SDS011;5200;43.236;27.986;2022-08-21T09:31:11;8.95;;;5.22;;
10309;SDS011;5200;43.236;27.986;2022-08-21T09:33:47;9.82;;;5.20;;
10309;SDS011;5200;43.236;27.986;2022-08-21T09:36:22;8.35;;;4.82;;
10309;SDS011;5200;43.236;27.986;2022-08-21T09:38:52;10.48;;;4.78;;
10309;SDS011;5200;43.236;27.986;2022-08-21T09:41:25;7.57;;;5.03;;
10309;SDS011;5200;43.236;27.986;2022-08-21T09:43:56;7.00;;;5.57;;
10309;SDS011;5200;43.236;27.986;2022-08-21T09:46:26;8.25;;;5.45;;
10309;SDS011;5200;43.236;27.986;2022-08-21T09:48:54;9.32;;;5.50;;
10309;SDS011;5200;43.236;27.986;2022-08-21T09:51:24;6.97;;;5.38;;
10309;SDS011;5200;43.236;27.986;2022-08-21T09:53:54;9.88;;;5.97;;
10309;SDS011;5200;43.236;27.986;2022-08-21T09:56:27;8.00;;;5.80;;
10309;SDS011;5200;43.236;27.986;2022-08-21T09:59:17;6.07;;;5.53;;
10309;SDS011;5200;43.236;27.986;2022-08-21T10:01:49;6.40;;;5.60;;
10309;SDS011;5200;43.236;27.986;2022-08-21T10:04:19;8.73;;;5.97;;
10309;SDS011;5200;43.236;27.986;2022-08-21T10:06:47;6.32;;;5.72;;
10309;SDS011;5200;43.236;27.986;2022-08-21T10:09:15;10.23;;;6.38;;
10309;SDS011;5200;43.236;27.986;2022-08-21T10:11:45;8.90;;;6.38;;
10309;SDS011;5200;43.236;27.986;2022-08-21T10:14:23;6.97;;;6.28;;
10309;SDS011;5200;43.236;27.986;2022-08-21T10:17:05;7.70;;;6.03;;
10309;SDS011;5200;43.236;27.986;2022-08-21T10:19:38;6.68;;;6.07;;
10309;SDS011;5200;43.236;27.986;2022-08-21T10:22:16;7.90;;;5.90;;
10309;SDS011;5200;43.236;27.986;2022-08-21T10:24:52;7.88;;;5.63;;
10309;SDS011;5200;43.236;27.986;2022-08-21T10:27:30;7.25;;;6.13;;
10309;SDS011;5200;43.236;27.986;2022-08-21T10:30:05;6.88;;;6.28;;
10309;SDS011;5200;43.236;27.986;2022-08-21T10:32:49;7.82;;;7.00;;
10309;SDS011;5200;43.236;27.986;2022-08-21T10:35:29;10.80;;;6.82;;
10309;SDS011;5200;43.236;27.986;2022-08-21T10:38:02;8.07;;;7.05;;
10309;SDS011;5200;43.236;27.986;2022-08-21T10:40:46;11.05;;;6.40;;
10309;SDS011;5200;43.236;27.986;2022-08-21T10:43:24;9.68;;;7.13;;
10309;SDS011;5200;43.236;27.986;2022-08-21T10:46:00;9.43;;;7.30;;
10309;SDS011;5200;43.236;27.986;2022-08-21T10:48:35;11.88;;;7.43;;
10309;SDS011;5200;43.236;27.986;2022-08-21T10:51:05;10.43;;;7.15;;
10309;SDS011;5200;43.236;27.986;2022-08-21T10:53:45;10.93;;;6.75;;
10309;SDS011;5200;43.236;27.986;2022-08-21T10:56:20;8.10;;;7.35;;
10309;SDS011;5200;43.236;27.986;2022-08-21T10:58:53;9.70;;;6.65;;
10309;SDS011;5200;43.236;27.986;2022-08-21T11:01:29;9.27;;;7.05;;
10309;SDS011;5200;43.236;27.986;2022-08-21T11:04:07;8.18;;;6.57;;
10309;SDS011;5200;43.236;27.986;2022-08-21T11:06:39;9.40;;;6.72;;
10309;SDS011;5200;43.236;27.986;2022-08-21T11:09:11;8.05;;;6.47;;
10309;SDS011;5200;43.236;27.986;2022-08-21T11:11:41;10.10;;;7.03;;
10309;SDS011;5200;43.236;27.986;2022-08-21T11:14:17;10.48;;;6.78;;
10309;SDS011;5200;43.236;27.986;2022-08-21T11:16:49;6.93;;;6.32;;
10309;SDS011;5200;43.236;27.986;2022-08-21T11:19:26;13.50;;;7.57;;
10309;SDS011;5200;43.236;27.986;2022-08-21T11:21:59;9.75;;;6.82;;
10309;SDS011;5200;43.236;27.986;2022-08-21T11:24:34;7.88;;;7.03;;
10309;SDS011;5200;43.236;27.986;2022-08-21T11:27:09;10.55;;;7.03;;
10309;SDS011;5200;43.236;27.986;2022-08-21T11:29:48;8.05;;;6.68;;
10309;SDS011;5200;43.236;27.986;2022-08-21T11:32:24;11.65;;;7.40;;
10309;SDS011;5200;43.236;27.986;2022-08-21T11:35:10;12.38;;;7.15;;
10309;SDS011;5200;43.236;27.986;2022-08-21T11:37:48;7.03;;;6.38;;
10309;SDS011;5200;43.236;27.986;2022-08-21T11:40:26;9.77;;;7.30;;
10309;SDS011;5200;43.236;27.986;2022-08-21T11:43:07;10.45;;;7.07;;
10309;SDS011;5200;43.236;27.986;2022-08-21T11:45:43;7.07;;;6.35;;
10309;SDS011;5200;43.236;27.986;2022-08-21T11:48:15;8.20;;;6.15;;
10309;SDS011;5200;43.236;27.986;2022-08-21T11:50:55;7.47;;;6.47;;
10309;SDS011;5200;43.236;27.986;2022-08-21T11:53:24;6.03;;;5.22;;
10309;SDS011;5200;43.236;27.986;2022-08-21T11:55:58;7.22;;;6.30;;
10309;SDS011;5200;43.236;27.986;2022-08-21T11:58:31;9.25;;;6.70;;
10309;SDS011;5200;43.236;27.986;2022-08-21T12:01:03;7.47;;;6.32;;
10309;SDS011;5200;43.236;27.986;2022-08-21T12:03:35;6.70;;;5.88;;
10309;SDS011;5200;43.236;27.986;2022-08-21T12:06:07;8.27;;;6.03;;
10309;SDS011;5200;43.236;27.986;2022-08-21T12:08:36;6.68;;;5.97;;
10309;SDS011;5200;43.236;27.986;2022-08-21T12:11:06;7.55;;;6.45;;
10309;SDS011;5200;43.236;27.986;2022-08-21T12:13:35;10.02;;;6.60;;
10309;SDS011;5200;43.236;27.986;2022-08-21T12:16:05;10.25;;;6.88;;
10309;SDS011;5200;43.236;27.986;2022-08-21T12:18:33;10.77;;;6.28;;
10309;SDS011;5200;43.236;27.986;2022-08-21T12:21:05;7.80;;;6.05;;
10309;SDS011;5200;43.236;27.986;2022-08-21T12:23:47;8.13;;;6.82;;
10309;SDS011;5200;43.236;27.986;2022-08-21T12:26:29;8.02;;;6.72;;
10309;SDS011;5200;43.236;27.986;2022-08-21T12:29:11;10.80;;;6.63;;
10309;SDS011;5200;43.236;27.986;2022-08-21T12:31:52;8.13;;;6.72;;
10309;SDS011;5200;43.236;27.986;2022-08-21T12:34:23;8.10;;;6.88;;
10309;SDS011;5200;43.236;27.986;2022-08-21T12:36:59;10.30;;;6.45;;
10309;SDS011;5200;43.236;27.986;2022-08-21T12:39:29;10.32;;;6.63;;
10309;SDS011;5200;43.236;27.986;2022-08-21T12:42:00;7.40;;;6.80;;
10309;SDS011;5200;43.236;27.986;2022-08-21T12:44:33;10.65;;;6.53;;
10309;SDS011;5200;43.236;27.986;2022-08-21T12:47:12;10.50;;;6.50;;
10309;SDS011;5200;43.236;27.986;2022-08-21T12:49:44;9.52;;;6.68;;
10309;SDS011;5200;43.236;27.986;2022-08-21T12:52:21;11.55;;;6.90;;
10309;SDS011;5200;43.236;27.986;2022-08-21T12:54:50;7.25;;;5.93;;
10309;SDS011;5200;43.236;27.986;2022-08-21T12:57:18;9.13;;;6.43;;
10309;SDS011;5200;43.236;27.986;2022-08-21T12:59:51;7.45;;;6.13;;
10309;SDS011;5200;43.236;27.986;2022-08-21T13:02:20;11.27;;;6.47;;
10309;SDS011;5200;43.236;27.986;2022-08-21T13:04:49;8.10;;;6.50;;
10309;SDS011;5200;43.236;27.986;2022-08-21T13:07:22;14.55;;;6.18;;
10309;SDS011;5200;43.236;27.986;2022-08-21T13:09:53;7.57;;;6.50;;
10309;SDS011;5200;43.236;27.986;2022-08-21T13:12:24;7.03;;;5.85;;
10309;SDS011;5200;43.236;27.986;2022-08-21T13:14:55;6.78;;;6.15;;
10309;SDS011;5200;43.236;27.986;2022-08-21T13:17:23;7.82;;;6.63;;
10309;SDS011;5200;43.236;27.986;2022-08-21T13:19:53;7.55;;;6.63;;
10309;SDS011;5200;43.236;27.986;2022-08-21T13:22:23;7.18;;;6.47;;
10309;SDS011;5200;43.236;27.986;2022-08-21T13:24:51;15.07;;;6.43;;
10309;SDS011;5200;43.236;27.986;2022-08-21T13:27:19;10.05;;;6.57;;
10309;SDS011;5200;43.236;27.986;2022-08-21T13:30:00;10.73;;;6.40;;
10309;SDS011;5200;43.236;27.986;2022-08-21T13:32:30;11.13;;;6.60;;
10309;SDS011;5200;43.236;27.986;2022-08-21T13:35:00;7.20;;;6.40;;
10309;SDS011;5200;43.236;27.986;2022-08-21T13:37:36;8.30;;;6.60;;
10309;SDS011;5200;43.236;27.986;2022-08-21T13:40:06;9.15;;;6.75;;
10309;SDS011;5200;43.236;27.986;2022-08-21T13:42:38;13.70;;;7.25;;
10309;SDS011;5200;43.236;27.986;2022-08-21T13:45:17;10.68;;;6.65;;
10309;SDS011;5200;43.236;27.986;2022-08-21T13:47:49;7.35;;;6.63;;
10309;SDS011;5200;43.236;27.986;2022-08-21T13:50:17;12.90;;;7.35;;
10309;SDS011;5200;43.236;27.986;2022-08-21T13:52:49;6.72;;;6.13;;
10309;SDS011;5200;43.236;27.986;2022-08-21T13:55:22;8.00;;;6.13;;
10309;SDS011;5200;43.236;27.986;2022-08-21T13:57:58;7.70;;;7.00;;
10309;SDS011;5200;43.236;27.986;2022-08-21T14:00:26;9.32;;;6.82;;
10309;SDS011;5200;43.236;27.986;2022-08-21T14:02:59;11.27;;;6.70;;
10309;SDS011;5200;43.236;27.986;2022-08-21T14:05:30;11.45;;;6.40;;
10309;SDS011;5200;43.236;27.986;2022-08-21T14:08:02;12.95;;;6.60;;
10309;SDS011;5200;43.236;27.986;2022-08-21T14:10:31;10.10;;;6.70;;
10309;SDS011;5200;43.236;27.986;2022-08-21T14:13:03;7.00;;;6.40;;
10309;SDS011;5200;43.236;27.986;2022-08-21T14:15:32;11.07;;;6.20;;
10309;SDS011;5200;43.236;27.986;2022-08-21T14:18:07;9.15;;;6.72;;
10309;SDS011;5200;43.236;27.986;2022-08-21T14:20:35;7.38;;;6.60;;
10309;SDS011;5200;43.236;27.986;2022-08-21T14:23:04;8.30;;;7.18;;
10309;SDS011;5200;43.236;27.986;2022-08-21T14:25:36;9.82;;;7.65;;
10309;SDS011;5200;43.236;27.986;2022-08-21T14:28:15;10.57;;;7.45;;
10309;SDS011;5200;43.236;27.986;2022-08-21T14:30:54;6.97;;;6.32;;
10309;SDS011;5200;43.236;27.986;2022-08-21T14:33:37;13.38;;;6.57;;
10309;SDS011;5200;43.236;27.986;2022-08-21T14:36:05;16.73;;;6.95;;
10309;SDS011;5200;43.236;27.986;2022-08-21T14:38:34;8.23;;;6.82;;
10309;SDS011;5200;43.236;27.986;2022-08-21T14:41:04;10.15;;;6.80;;
10309;SDS011;5200;43.236;27.986;2022-08-21T14:43:57;7.63;;;6.78;;
10309;SDS011;5200;43.236;27.986;2022-08-21T14:46:25;13.88;;;6.55;;
10309;SDS011;5200;43.236;27.986;2022-08-21T14:48:55;8.38;;;6.75;;
10309;SDS011;5200;43.236;27.986;2022-08-21T14:51:22;8.23;;;7.30;;
10309;SDS011;5200;43.236;27.986;2022-08-21T14:53:50;8.40;;;6.30;;
10309;SDS011;5200;43.236;27.986;2022-08-21T14:56:17;9.25;;;6.97;;
10309;SDS011;5200;43.236;27.986;2022-08-21T14:58:47;10.10;;;7.30;;
10309;SDS011;5200;43.236;27.986;2022-08-21T15:01:17;7.35;;;6.57;;
10309;SDS011;5200;43.236;27.986;2022-08-21T15:03:46;7.53;;;6.93;;